Terminal Aerodrome Forecast
Issued by NWS Duluth, MN

Home | Current Version | Previous Version | Text Only | Print | Product List | Glossary On
Versions: 1 2 3 4 5 6 7 8 9 10 11 12 13 14 15 16 17 18 19
767
FTUS43 KDLH 210520
TAFDLH
TAF
KDLH 210520Z 2106/2206 18014KT P6SM BKN150 WS020/19045KT
     FM211000 18012KT P6SM VCSH OVC080
     FM211500 18014G20KT P6SM VCSH OVC015
     FM212000 17014G20KT 6SM -SHRA VCTS BKN012CB OVC025
     FM220000 19012KT 5SM -SHRA BR OVC008
     FM220400 23007KT P6SM VCSH OVC025=

USA.gov is the U.S. government's official web portal to all federal, state and local government web resources and services.